createdAt,value
2022-10-11T16:41:35.542Z,5.87
2022-10-11T16:44:04.256Z,4.57
2022-10-11T16:46:32.968Z,3.37
2022-10-11T16:49:02.044Z,3.90
2022-10-11T16:51:30.055Z,4.30
2022-10-11T16:53:58.211Z,4.90
2022-10-11T16:56:26.284Z,3.63
2022-10-11T16:58:56.377Z,5.47
2022-10-11T17:01:24.796Z,5.50
2022-10-11T17:03:53.238Z,5.07
2022-10-11T17:06:21.849Z,4.67
2022-10-11T17:08:50.186Z,7.40
2022-10-11T17:11:18.655Z,5.57
2022-10-11T17:13:47.566Z,5.37
2022-10-11T17:16:17.633Z,5.80
2022-10-11T17:18:45.682Z,7.50
2022-10-11T17:21:16.373Z,3.53
2022-10-11T17:23:44.928Z,3.97
2022-10-11T17:26:17.426Z,5.60
2022-10-11T17:28:45.866Z,7.57
2022-10-11T17:31:13.955Z,5.47
2022-10-11T17:33:43.403Z,7.60
2022-10-11T17:36:17.411Z,8.73
2022-10-11T17:38:45.512Z,6.53
2022-10-11T17:41:13.965Z,6.70
2022-10-11T17:43:42.049Z,5.70
2022-10-11T17:46:12.145Z,7.43
2022-10-11T17:48:40.370Z,8.30
2022-10-11T17:51:11.269Z,10.57
2022-10-11T17:53:39.806Z,7.57
2022-10-11T17:56:09.539Z,8.83
2022-10-11T17:58:37.987Z,7.73
2022-10-11T18:01:08.672Z,7.97
2022-10-11T18:03:37.203Z,9.90
2022-10-11T18:06:06.463Z,7.53
2022-10-11T18:08:40.446Z,7.63
2022-10-11T18:11:12.028Z,7.17
2022-10-11T18:13:42.696Z,7.93
2022-10-11T18:16:11.740Z,7.70
2022-10-11T18:18:40.155Z,6.93
2022-10-11T18:21:08.477Z,7.23
2022-10-11T18:23:38.415Z,7.60
2022-10-11T18:26:10.768Z,7.33
2022-10-11T18:28:38.956Z,7.60
2022-10-11T18:31:12.503Z,5.43
2022-10-11T18:33:42.064Z,6.83
2022-10-11T18:36:13.370Z,5.83
2022-10-11T18:38:46.396Z,4.20
2022-10-11T18:41:16.742Z,5.93
2022-10-11T18:43:49.153Z,6.03
2022-10-11T18:46:17.459Z,5.80
2022-10-11T18:48:47.900Z,2.90
2022-10-11T18:51:18.397Z,3.50
2022-10-11T18:53:48.365Z,2.93
2022-10-11T18:56:20.582Z,3.67
2022-10-11T18:58:49.586Z,3.33
2022-10-11T19:01:19.363Z,2.90
2022-10-11T19:03:49.432Z,3.17
2022-10-11T19:06:20.544Z,4.07
2022-10-11T19:08:51.650Z,3.57
2022-10-11T19:11:22.092Z,4.50
2022-10-11T19:13:56.231Z,4.07
2022-10-11T19:16:24.927Z,4.33
2022-10-11T19:18:53.793Z,3.93
2022-10-11T19:21:22.035Z,4.40
2022-10-11T19:23:52.054Z,5.07
2022-10-11T19:26:22.773Z,5.23
2022-10-11T19:28:56.257Z,5.30
2022-10-11T19:31:24.850Z,3.67
2022-10-11T19:33:52.850Z,4.27
2022-10-11T19:36:21.100Z,5.13
2022-10-11T19:38:56.473Z,4.40
2022-10-11T19:41:25.520Z,5.17
2022-10-11T19:43:54.024Z,6.07
2022-10-11T19:46:44.515Z,4.53
2022-10-11T19:49:13.951Z,3.37
2022-10-11T19:51:42.187Z,4.10
2022-10-11T19:54:13.652Z,4.60
2022-10-11T19:56:42.469Z,3.10
2022-10-11T19:59:12.226Z,4.67
2022-10-11T20:01:41.315Z,3.80
2022-10-11T20:04:27.366Z,4.43
2022-10-11T20:06:59.359Z,3.73
2022-10-11T20:09:30.278Z,4.70
2022-10-11T20:11:58.570Z,5.03
2022-10-11T20:14:26.679Z,6.93
2022-10-11T20:16:54.708Z,4.30
2022-10-11T20:19:29.345Z,5.83
2022-10-11T20:21:58.808Z,4.50
2022-10-11T20:24:32.666Z,7.77
2022-10-11T20:27:01.758Z,5.93
2022-10-11T20:29:29.795Z,5.73
2022-10-11T20:31:58.926Z,5.57
2022-10-11T20:34:28.281Z,7.87
2022-10-11T20:36:56.373Z,4.50
2022-10-11T20:39:24.752Z,4.30
2022-10-11T20:41:54.096Z,3.93
2022-10-11T20:44:22.128Z,5.00
2022-10-11T20:46:50.130Z,5.77
2022-10-11T20:49:19.889Z,5.53
2022-10-11T20:51:48.016Z,5.47
2022-10-11T20:54:16.442Z,6.30
2022-10-11T20:56:44.510Z,4.93
2022-10-11T20:59:13.934Z,5.53
2022-10-11T21:01:43.272Z,5.93
2022-10-11T21:04:18.467Z,5.03
2022-10-11T21:06:46.988Z,4.53
2022-10-11T21:09:16.977Z,5.73
2022-10-11T21:11:45.275Z,6.53
2022-10-11T21:14:14.855Z,5.43
2022-10-11T21:16:43.113Z,4.83
2022-10-11T21:19:15.009Z,5.10
2022-10-11T21:21:43.761Z,4.90
2022-10-11T21:24:11.850Z,4.57
2022-10-11T21:26:40.368Z,5.93
2022-10-11T21:29:08.560Z,4.97
2022-10-11T21:31:37.967Z,5.87
2022-10-11T21:34:07.353Z,4.77
2022-10-11T21:36:35.427Z,5.57
2022-10-11T21:39:03.746Z,4.93
2022-10-11T21:41:32.108Z,4.93
2022-10-11T21:44:00.910Z,6.10
2022-10-11T21:47:04.926Z,6.50
2022-10-11T21:49:20.599Z,6.13
2022-10-11T21:51:48.623Z,6.00
2022-10-11T21:54:16.884Z,7.40
2022-10-11T21:56:44.892Z,5.07
2022-10-11T21:59:35.969Z,4.90
2022-10-11T22:02:04.022Z,5.93
2022-10-11T22:04:33.312Z,4.60
2022-10-11T22:07:01.363Z,5.10
2022-10-11T22:09:29.944Z,8.60
2022-10-11T22:11:58.270Z,6.77
2022-10-11T22:14:26.333Z,6.57
2022-10-11T22:16:54.317Z,5.23
2022-10-11T22:19:22.389Z,6.70
2022-10-11T22:21:51.806Z,5.20
2022-10-11T22:24:19.833Z,7.13
2022-10-11T22:26:47.849Z,5.60
2022-10-11T22:29:15.851Z,6.80
2022-10-11T22:31:43.852Z,6.60
2022-10-11T22:34:11.873Z,6.07
2022-10-11T22:36:39.879Z,6.47
2022-10-11T22:39:10.097Z,6.73
2022-10-11T22:41:38.831Z,7.20
2022-10-11T22:44:07.245Z,6.87
2022-10-11T22:46:35.343Z,7.20
2022-10-11T22:49:03.408Z,8.80
2022-10-11T22:51:31.399Z,8.13
2022-10-11T22:53:59.420Z,5.50
2022-10-11T22:56:28.965Z,5.50
2022-10-11T22:58:56.984Z,6.47
2022-10-11T23:01:24.979Z,6.87
2022-10-11T23:03:54.038Z,7.90
2022-10-11T23:06:22.101Z,6.33
2022-10-11T23:08:50.151Z,7.83
2022-10-11T23:11:18.157Z,7.17
2022-10-11T23:13:47.547Z,6.80
2022-10-11T23:16:15.656Z,6.37
2022-10-11T23:18:44.107Z,7.77
2022-10-11T23:21:13.169Z,5.77
2022-10-11T23:23:41.184Z,6.23
2022-10-11T23:26:13.366Z,7.47
2022-10-11T23:28:41.619Z,6.47
2022-10-11T23:31:13.257Z,7.97
2022-10-11T23:33:41.285Z,6.27
2022-10-11T23:36:15.566Z,6.90
2022-10-11T23:38:43.705Z,8.90
2022-10-11T23:41:11.884Z,6.33
2022-10-11T23:43:39.919Z,5.73
2022-10-11T23:46:07.976Z,8.17
2022-10-11T23:48:37.364Z,4.20
2022-10-11T23:51:05.492Z,3.20
2022-10-11T23:53:33.637Z,4.03
2022-10-11T23:56:01.674Z,3.47
2022-10-11T23:58:29.821Z,4.23
